METAR Data

Data at: 1113 UTC 24 May 2022

METAR for:CYZX (Greenwood (MIL), NS, CA)
Text:CYZX 241100Z 03004KT 15SM SCT250 09/05 A3034 RMK CI3 SLP277
Temperature: 9.0°C ( 48°F)
Dewpoint: 5.0°C ( 41°F) [RH = 76%]
Pressure (altimeter):30.34 inches Hg (1027.5 mb) [Sea level pressure: 1027.7 mb]
Winds:from the NNE (30 degrees) at 5 MPH (4 knots; 2.1 m/s)
Visibility: 15 sm ( 24 km)
Ceiling:at least 12,000 feet AGL
Clouds: scattered clouds at 25000 feet AGL